Time;durP1;ratioP1;P1;durP2;ratioP2;P2;SDS_P1;SDS_P2;PMS_P1;PMS_P2;Temp;Humidity;BMP_temperature;BMP_pressure;BME280_temperature;BME280_humidity;BME280_pressure;Samples;Min_cycle;Max_cycle;Signal;HPM_P1;HPM_P2
2024/01/28 00:00:42;;;;;;;19.80;9.95;;;;;;;;;;5055118;28;20029;-74
2024/01/28 00:03:07;;;;;;;18.27;8.10;;;;;;;;;;5032846;28;20031;-74
2024/01/28 00:05:33;;;;;;;12.50;6.20;;;;;;;;;;5058036;28;20501;-74
2024/01/28 00:07:58;;;;;;;10.77;6.60;;;;;;;;;;5061457;28;20512;-74
2024/01/28 00:10:24;;;;;;;14.57;7.63;;;;;;;;;;5053656;28;20048;-74
2024/01/28 00:12:50;;;;;;;12.75;7.32;;;;;;;;;;5050088;28;20032;-74
2024/01/28 00:15:15;;;;;;;13.38;6.57;;;;;;;;;;5051268;28;20048;-74
2024/01/28 00:17:41;;;;;;;11.48;6.93;;;;;;;;;;5048203;28;20033;-74
2024/01/28 00:20:06;;;;;;;9.88;6.07;;;;;;;;;;5056558;28;20111;-74
2024/01/28 00:22:32;;;;;;;9.52;5.50;;;;;;;;;;5052412;28;20045;-74
2024/01/28 00:24:57;;;;;;;11.55;6.80;;;;;;;;;;5051178;28;20048;-74
2024/01/28 00:27:23;;;;;;;7.90;5.25;;;;;;;;;;5058915;28;20056;-74
2024/01/28 00:29:48;;;;;;;8.52;4.97;;;;;;;;;;5056260;28;20037;-74
2024/01/28 00:32:13;;;;;;;6.60;4.47;;;;;;;;;;5049652;28;20082;-76
2024/01/28 00:34:38;;;;;;;8.23;5.05;;;;;;;;;;5058916;28;20075;-76
2024/01/28 00:37:04;;;;;;;6.72;4.32;;;;;;;;;;5057051;28;20040;-74
2024/01/28 00:39:29;;;;;;;8.55;4.75;;;;;;;;;;5055594;28;20128;-72
2024/01/28 00:41:55;;;;;;;7.45;4.15;;;;;;;;;;5057336;28;20063;-74
2024/01/28 00:44:20;;;;;;;13.82;4.68;;;;;;;;;;5055493;28;20063;-73
2024/01/28 00:46:46;;;;;;;9.55;5.63;;;;;;;;;;5046643;28;20063;-73
2024/01/28 00:49:11;;;;;;;5.90;4.00;;;;;;;;;;5050215;28;20037;-74
2024/01/28 00:51:37;;;;;;;8.18;4.97;;;;;;;;;;5054743;28;20067;-73
2024/01/28 00:54:02;;;;;;;7.60;4.40;;;;;;;;;;5056405;28;20060;-73
2024/01/28 00:56:27;;;;;;;9.82;4.10;;;;;;;;;;5052773;28;20033;-74
2024/01/28 00:58:53;;;;;;;5.47;3.80;;;;;;;;;;5050264;28;20041;-73
2024/01/28 01:01:19;;;;;;;9.60;4.40;;;;;;;;;;5050010;28;20033;-74
2024/01/28 01:03:44;;;;;;;6.53;3.67;;;;;;;;;;5057018;28;20040;-74
2024/01/28 01:06:10;;;;;;;10.35;4.53;;;;;;;;;;5049440;28;20531;-73
2024/01/28 01:08:35;;;;;;;3.97;3.35;;;;;;;;;;5051710;28;20048;-73
2024/01/28 01:11:03;;;;;;;5.38;4.15;;;;;;;;;;5052278;28;20043;-73
2024/01/28 01:13:32;;;;;;;7.68;4.03;;;;;;;;;;5056402;28;20537;-73
2024/01/28 01:15:57;;;;;;;6.63;3.83;;;;;;;;;;5057802;28;20071;-74
2024/01/28 01:18:23;;;;;;;4.55;4.05;;;;;;;;;;5050669;28;20049;-74
2024/01/28 01:20:49;;;;;;;5.63;3.70;;;;;;;;;;5060824;28;20036;-74
2024/01/28 01:23:15;;;;;;;8.05;4.47;;;;;;;;;;5054055;28;20029;-74
2024/01/28 01:25:40;;;;;;;5.05;3.85;;;;;;;;;;5052280;28;20155;-74
2024/01/28 01:28:06;;;;;;;6.03;4.50;;;;;;;;;;5049861;28;20416;-74
2024/01/28 01:30:31;;;;;;;5.85;4.03;;;;;;;;;;5052252;28;20472;-74
2024/01/28 01:32:56;;;;;;;5.53;4.10;;;;;;;;;;5057314;28;20780;-74
2024/01/28 01:35:22;;;;;;;6.03;4.05;;;;;;;;;;5060244;28;20032;-73
2024/01/28 01:37:48;;;;;;;4.45;3.42;;;;;;;;;;5058606;28;20037;-74
2024/01/28 01:40:14;;;;;;;4.70;3.60;;;;;;;;;;5058723;28;20036;-76
2024/01/28 01:42:40;;;;;;;3.20;2.45;;;;;;;;;;5053065;28;20041;-74
2024/01/28 01:45:06;;;;;;;3.38;2.95;;;;;;;;;;5048030;28;20439;-73
2024/01/28 01:47:32;;;;;;;4.05;3.17;;;;;;;;;;5057949;28;20035;-74
2024/01/28 01:49:57;;;;;;;6.05;4.25;;;;;;;;;;5061015;28;20082;-73
2024/01/28 01:52:23;;;;;;;6.00;3.92;;;;;;;;;;5069184;28;20052;-73
2024/01/28 01:54:50;;;;;;;5.15;3.67;;;;;;;;;;5060004;28;20028;-74
2024/01/28 01:57:18;;;;;;;6.45;3.80;;;;;;;;;;5054177;28;20024;-74
2024/01/28 01:59:45;;;;;;;8.05;4.50;;;;;;;;;;5057952;28;20409;-74
2024/01/28 02:02:11;;;;;;;8.68;4.38;;;;;;;;;;5050553;28;20439;-74
2024/01/28 02:04:38;;;;;;;5.50;3.47;;;;;;;;;;5047637;28;20119;-74
2024/01/28 02:07:04;;;;;;;5.60;3.28;;;;;;;;;;5048901;28;20131;-73
2024/01/28 02:09:31;;;;;;;12.18;3.83;;;;;;;;;;5051194;28;20477;-74
2024/01/28 02:11:56;;;;;;;3.45;2.78;;;;;;;;;;5064756;28;20028;-73
2024/01/28 02:14:23;;;;;;;4.38;2.92;;;;;;;;;;5049625;28;20485;-73
2024/01/28 02:16:48;;;;;;;4.00;3.30;;;;;;;;;;5049353;28;20513;-73
2024/01/28 02:19:14;;;;;;;6.88;3.50;;;;;;;;;;5057191;28;20140;-73
2024/01/28 02:21:39;;;;;;;4.00;2.95;;;;;;;;;;5059251;28;20041;-74
2024/01/28 02:24:05;;;;;;;8.15;4.00;;;;;;;;;;5048761;28;20056;-74
2024/01/28 02:26:30;;;;;;;2.58;2.33;;;;;;;;;;5049210;28;20664;-74
2024/01/28 02:28:55;;;;;;;4.18;3.15;;;;;;;;;;5055756;28;20037;-75
2024/01/28 02:31:21;;;;;;;2.85;2.30;;;;;;;;;;5059220;28;20033;-73
2024/01/28 02:33:46;;;;;;;3.60;2.88;;;;;;;;;;5065634;28;20060;-74
2024/01/28 02:36:11;;;;;;;5.60;3.05;;;;;;;;;;5060439;28;20028;-73
2024/01/28 02:38:37;;;;;;;4.07;2.97;;;;;;;;;;5053962;28;20085;-73
2024/01/28 02:41:02;;;;;;;4.18;3.00;;;;;;;;;;5048378;28;20036;-74
2024/01/28 02:43:27;;;;;;;7.10;3.25;;;;;;;;;;5054501;28;20043;-73
2024/01/28 02:45:53;;;;;;;4.45;3.63;;;;;;;;;;5057252;28;20037;-73
2024/01/28 02:48:18;;;;;;;2.50;2.28;;;;;;;;;;5053104;28;20052;-73
2024/01/28 02:50:43;;;;;;;2.85;2.38;;;;;;;;;;5065768;28;20028;-75
2024/01/28 02:53:09;;;;;;;2.88;2.20;;;;;;;;;;5049915;28;20048;-73
2024/01/28 02:55:36;;;;;;;2.63;2.10;;;;;;;;;;5050349;28;20037;-75
2024/01/28 02:58:02;;;;;;;4.78;2.78;;;;;;;;;;5054437;28;20125;-73
2024/01/28 03:00:27;;;;;;;2.15;1.80;;;;;;;;;;5054701;28;20580;-73
2024/01/28 03:02:53;;;;;;;2.33;1.92;;;;;;;;;;5055345;28;20033;-75
2024/01/28 03:05:18;;;;;;;3.92;2.38;;;;;;;;;;5047312;28;20119;-74
2024/01/28 03:07:44;;;;;;;2.55;2.28;;;;;;;;;;5051962;28;20439;-75
2024/01/28 03:10:09;;;;;;;3.53;2.13;;;;;;;;;;5048121;28;20045;-73
2024/01/28 03:12:35;;;;;;;2.97;2.67;;;;;;;;;;5056050;28;20444;-74
2024/01/28 03:15:00;;;;;;;2.47;1.88;;;;;;;;;;5049246;28;20060;-74
2024/01/28 03:17:26;;;;;;;2.40;2.20;;;;;;;;;;5057181;28;20078;-74
2024/01/28 03:19:51;;;;;;;1.55;1.45;;;;;;;;;;5055247;28;20025;-73
2024/01/28 03:22:16;;;;;;;1.80;1.70;;;;;;;;;;5049449;28;20037;-74
2024/01/28 03:24:42;;;;;;;1.65;1.55;;;;;;;;;;5056725;28;20043;-73
2024/01/28 03:27:07;;;;;;;1.75;1.63;;;;;;;;;;5048310;28;20025;-73
2024/01/28 03:29:32;;;;;;;1.85;1.70;;;;;;;;;;5059710;28;20588;-74
2024/01/28 03:31:57;;;;;;;2.83;1.88;;;;;;;;;;5055081;28;20029;-73
2024/01/28 03:34:23;;;;;;;2.90;2.13;;;;;;;;;;5052150;28;20058;-74
2024/01/28 03:36:48;;;;;;;4.78;2.70;;;;;;;;;;5054031;28;20045;-75
2024/01/28 03:39:16;;;;;;;4.30;3.40;;;;;;;;;;5065849;28;20040;-73
2024/01/28 03:41:41;;;;;;;3.60;2.70;;;;;;;;;;5066616;28;20040;-75
2024/01/28 03:44:08;;;;;;;2.95;2.33;;;;;;;;;;5063610;28;20040;-75
2024/01/28 03:46:35;;;;;;;3.13;2.40;;;;;;;;;;5062655;28;20124;-73
2024/01/28 03:49:00;;;;;;;2.67;2.15;;;;;;;;;;5053320;28;20416;-73
2024/01/28 03:51:26;;;;;;;2.38;2.17;;;;;;;;;;5047436;28;20128;-73
2024/01/28 03:53:51;;;;;;;2.67;2.33;;;;;;;;;;5046065;28;20037;-73
2024/01/28 03:56:16;;;;;;;3.45;2.85;;;;;;;;;;5058410;28;20047;-75
2024/01/28 03:58:42;;;;;;;2.88;2.47;;;;;;;;;;5053241;28;20067;-75
2024/01/28 04:01:08;;;;;;;1.60;1.50;;;;;;;;;;5052854;28;20033;-75
2024/01/28 04:03:33;;;;;;;2.15;2.05;;;;;;;;;;5057565;28;20110;-75
2024/01/28 04:05:58;;;;;;;2.60;2.08;;;;;;;;;;5058309;28;20041;-75
2024/01/28 04:08:24;;;;;;;3.45;2.97;;;;;;;;;;5050995;28;20048;-73
2024/01/28 04:10:49;;;;;;;4.97;3.25;;;;;;;;;;5051586;28;20068;-73
2024/01/28 04:13:14;;;;;;;3.97;3.13;;;;;;;;;;5057342;28;20101;-73
2024/01/28 04:15:40;;;;;;;4.30;3.00;;;;;;;;;;5057847;28;20048;-75
2024/01/28 04:18:05;;;;;;;5.80;3.03;;;;;;;;;;5064566;28;20071;-75
2024/01/28 04:20:31;;;;;;;5.10;3.28;;;;;;;;;;5058426;28;20036;-76
2024/01/28 04:22:56;;;;;;;5.43;3.05;;;;;;;;;;5054375;28;20049;-75
2024/01/28 04:25:21;;;;;;;3.50;2.70;;;;;;;;;;5057143;28;20051;-74
2024/01/28 04:27:47;;;;;;;2.67;2.13;;;;;;;;;;5059174;28;20045;-74
2024/01/28 04:30:12;;;;;;;3.45;2.00;;;;;;;;;;5056414;28;20115;-74
2024/01/28 04:32:37;;;;;;;5.60;3.40;;;;;;;;;;5055690;28;20041;-74
2024/01/28 04:35:03;;;;;;;3.35;2.72;;;;;;;;;;5057777;28;20408;-74
2024/01/28 04:37:29;;;;;;;3.03;2.15;;;;;;;;;;5050674;28;20406;-74
2024/01/28 04:39:55;;;;;;;4.95;2.85;;;;;;;;;;5056638;28;20620;-74
2024/01/28 04:42:22;;;;;;;3.65;2.47;;;;;;;;;;5064164;28;20036;-74
2024/01/28 04:44:50;;;;;;;3.17;2.35;;;;;;;;;;5060853;28;20029;-74
2024/01/28 04:47:16;;;;;;;3.95;2.50;;;;;;;;;;5062052;28;20045;-73
2024/01/28 04:49:42;;;;;;;3.42;2.50;;;;;;;;;;5059392;28;20041;-74
2024/01/28 04:52:08;;;;;;;6.18;2.15;;;;;;;;;;5065312;28;20033;-75
2024/01/28 04:54:33;;;;;;;1.67;1.58;;;;;;;;;;5050259;28;20053;-73
2024/01/28 04:57:01;;;;;;;3.80;2.40;;;;;;;;;;5051883;28;20079;-73
2024/01/28 04:59:27;;;;;;;8.23;2.45;;;;;;;;;;5063102;28;20032;-73
2024/01/28 05:01:52;;;;;;;2.70;2.38;;;;;;;;;;5059796;28;20040;-75
2024/01/28 05:04:17;;;;;;;2.28;1.90;;;;;;;;;;5062036;28;20041;-73
2024/01/28 05:06:42;;;;;;;2.70;2.28;;;;;;;;;;5060343;28;20071;-75
2024/01/28 05:09:08;;;;;;;4.18;2.08;;;;;;;;;;5060394;28;20032;-74
2024/01/28 05:11:34;;;;;;;2.47;2.28;;;;;;;;;;5059775;28;20408;-74
2024/01/28 05:14:00;;;;;;;2.78;2.42;;;;;;;;;;5058332;28;20396;-74
2024/01/28 05:16:25;;;;;;;2.42;2.17;;;;;;;;;;5045042;28;20049;-75
2024/01/28 05:18:51;;;;;;;3.08;2.15;;;;;;;;;;5049177;28;20044;-74
2024/01/28 05:21:18;;;;;;;2.95;2.28;;;;;;;;;;5056568;28;20036;-74
2024/01/28 05:23:43;;;;;;;3.25;2.58;;;;;;;;;;5052765;28;20570;-74
2024/01/28 05:26:09;;;;;;;3.95;3.00;;;;;;;;;;5051162;28;20041;-74
2024/01/28 05:28:34;;;;;;;4.25;3.72;;;;;;;;;;5049829;28;20102;-74
2024/01/28 05:31:00;;;;;;;3.92;3.53;;;;;;;;;;5051040;28;20116;-74
2024/01/28 05:33:25;;;;;;;2.22;2.05;;;;;;;;;;5054822;28;20033;-74
2024/01/28 05:35:50;;;;;;;2.65;2.38;;;;;;;;;;5051221;28;20645;-75
2024/01/28 05:38:16;;;;;;;2.47;2.28;;;;;;;;;;5049691;28;20048;-75
2024/01/28 05:40:41;;;;;;;1.92;1.80;;;;;;;;;;5051730;28;20512;-75
2024/01/28 05:43:07;;;;;;;2.05;1.88;;;;;;;;;;5056725;28;20099;-74
2024/01/28 05:45:32;;;;;;;4.00;2.38;;;;;;;;;;5049955;28;20040;-74
2024/01/28 05:48:01;;;;;;;2.00;1.80;;;;;;;;;;5056860;28;20102;-74
2024/01/28 05:50:30;;;;;;;1.02;1.02;;;;;;;;;;5049274;28;20043;-74
2024/01/28 05:52:55;;;;;;;2.33;1.75;;;;;;;;;;5059004;28;20067;-74
2024/01/28 05:55:20;;;;;;;2.35;1.73;;;;;;;;;;5051696;28;20040;-74
2024/01/28 05:57:46;;;;;;;1.90;1.80;;;;;;;;;;5063656;28;20165;-74
2024/01/28 06:00:12;;;;;;;1.67;1.58;;;;;;;;;;5053134;28;20032;-75
2024/01/28 06:02:38;;;;;;;2.08;1.88;;;;;;;;;;5067646;28;20396;-74
2024/01/28 06:05:04;;;;;;;1.70;1.55;;;;;;;;;;5053246;28;20041;-75
2024/01/28 06:07:29;;;;;;;1.70;1.60;;;;;;;;;;5047909;28;20132;-74
2024/01/28 06:09:55;;;;;;;3.17;1.60;;;;;;;;;;5053846;28;20123;-74
2024/01/28 06:12:20;;;;;;;2.00;1.50;;;;;;;;;;5048771;28;20485;-74
2024/01/28 06:14:45;;;;;;;1.40;1.30;;;;;;;;;;5057954;28;20040;-75
2024/01/28 06:17:11;;;;;;;1.60;1.10;;;;;;;;;;5060131;28;20041;-74
2024/01/28 06:19:36;;;;;;;1.55;1.25;;;;;;;;;;5062388;28;20058;-75
2024/01/28 06:22:02;;;;;;;1.50;1.40;;;;;;;;;;5047749;28;20040;-75
2024/01/28 06:24:30;;;;;;;2.17;1.70;;;;;;;;;;5055799;28;20043;-76
2024/01/28 06:26:55;;;;;;;1.70;1.60;;;;;;;;;;5059208;28;20047;-74
2024/01/28 06:29:20;;;;;;;2.55;1.50;;;;;;;;;;5054216;28;20037;-74
2024/01/28 06:31:46;;;;;;;2.33;1.70;;;;;;;;;;5050748;28;20067;-74
2024/01/28 06:34:11;;;;;;;1.48;1.38;;;;;;;;;;5056650;28;20808;-74
2024/01/28 06:36:37;;;;;;;1.67;1.58;;;;;;;;;;5054592;28;20071;-74
2024/01/28 06:39:02;;;;;;;2.38;1.50;;;;;;;;;;5051330;28;20068;-74
2024/01/28 06:41:27;;;;;;;1.73;1.50;;;;;;;;;;5052501;28;20040;-75
2024/01/28 06:43:52;;;;;;;1.58;1.48;;;;;;;;;;5061275;28;20041;-74
2024/01/28 06:46:19;;;;;;;1.50;1.40;;;;;;;;;;5048640;28;20081;-75
2024/01/28 06:48:45;;;;;;;17.95;2.00;;;;;;;;;;5061040;28;20036;-75
2024/01/28 06:51:10;;;;;;;1.38;1.27;;;;;;;;;;5050586;28;20040;-74
2024/01/28 06:53:36;;;;;;;1.40;1.30;;;;;;;;;;5063550;28;20044;-74
2024/01/28 06:56:02;;;;;;;1.45;1.33;;;;;;;;;;5059273;28;20128;-73
2024/01/28 06:58:27;;;;;;;1.77;1.23;;;;;;;;;;5051284;28;20191;-73
2024/01/28 07:00:53;;;;;;;11.77;1.80;;;;;;;;;;5054023;28;20048;-73
2024/01/28 07:03:19;;;;;;;2.28;1.20;;;;;;;;;;5060103;28;20048;-75
2024/01/28 07:05:45;;;;;;;9.02;3.22;;;;;;;;;;5061703;28;20036;-75
2024/01/28 07:08:10;;;;;;;2.40;2.17;;;;;;;;;;5059935;28;20044;-73
2024/01/28 07:10:35;;;;;;;1.30;1.20;;;;;;;;;;5061129;28;20044;-73
2024/01/28 07:13:03;;;;;;;2.65;1.63;;;;;;;;;;5061779;28;20068;-73
2024/01/28 07:15:29;;;;;;;3.05;1.63;;;;;;;;;;5067893;28;20040;-73
2024/01/28 07:17:54;;;;;;;1.38;1.27;;;;;;;;;;5056148;28;20041;-72
2024/01/28 07:20:20;;;;;;;1.70;1.38;;;;;;;;;;5060509;28;20119;-75
2024/01/28 07:22:45;;;;;;;2.63;1.80;;;;;;;;;;5058555;28;20045;-74
2024/01/28 07:25:11;;;;;;;2.13;1.63;;;;;;;;;;5048912;28;20124;-73
2024/01/28 07:27:37;;;;;;;1.17;1.13;;;;;;;;;;5056572;28;20052;-74
2024/01/28 07:30:02;;;;;;;1.13;1.02;;;;;;;;;;5054446;28;20033;-73
2024/01/28 07:32:28;;;;;;;1.33;1.23;;;;;;;;;;5051934;28;20068;-75
2024/01/28 07:34:53;;;;;;;3.08;2.25;;;;;;;;;;5051087;28;20520;-76
2024/01/28 07:37:18;;;;;;;1.77;1.65;;;;;;;;;;5052618;28;20068;-74
2024/01/28 07:39:44;;;;;;;12.50;2.53;;;;;;;;;;5052930;28;20057;-74
2024/01/28 07:42:09;;;;;;;12.98;5.70;;;;;;;;;;5070690;28;20040;-74
2024/01/28 07:44:34;;;;;;;10.05;4.20;;;;;;;;;;5060421;28;20041;-74
2024/01/28 07:47:00;;;;;;;1.77;1.65;;;;;;;;;;5056513;28;20045;-75
2024/01/28 07:49:26;;;;;;;2.38;1.70;;;;;;;;;;5052408;28;20098;-74
2024/01/28 07:51:51;;;;;;;1.10;1.10;;;;;;;;;;5059648;28;20033;-75
2024/01/28 07:54:18;;;;;;;1.85;1.52;;;;;;;;;;5051461;28;20132;-74
2024/01/28 07:56:44;;;;;;;69.63;5.70;;;;;;;;;;5054852;28;20037;-74
2024/01/28 07:59:09;;;;;;;7.70;4.10;;;;;;;;;;5057552;28;20055;-74
2024/01/28 08:01:34;;;;;;;4.30;2.70;;;;;;;;;;5054222;28;20059;-74
2024/01/28 08:04:00;;;;;;;3.60;2.45;;;;;;;;;;5049228;28;20049;-74
2024/01/28 08:06:27;;;;;;;1.70;1.60;;;;;;;;;;5055694;28;20127;-74
2024/01/28 08:08:52;;;;;;;3.40;2.00;;;;;;;;;;5053925;28;20029;-75
2024/01/28 08:11:18;;;;;;;2.42;2.22;;;;;;;;;;5052650;28;20037;-74
2024/01/28 08:13:44;;;;;;;2.17;1.67;;;;;;;;;;5054403;28;20036;-74
2024/01/28 08:16:09;;;;;;;1.80;1.58;;;;;;;;;;5053220;28;20064;-74
2024/01/28 08:18:34;;;;;;;1.98;1.67;;;;;;;;;;5054913;28;20112;-74
2024/01/28 08:21:00;;;;;;;2.28;2.08;;;;;;;;;;5049036;28;20129;-75
2024/01/28 08:23:26;;;;;;;3.03;1.67;;;;;;;;;;5051806;28;20094;-75
2024/01/28 08:25:53;;;;;;;1.80;1.60;;;;;;;;;;5051752;28;20047;-75
2024/01/28 08:28:19;;;;;;;1.55;1.45;;;;;;;;;;5056448;28;20112;-74
2024/01/28 08:30:44;;;;;;;1.60;1.50;;;;;;;;;;5059028;28;20068;-75
2024/01/28 08:33:10;;;;;;;1.23;1.20;;;;;;;;;;5053387;28;20412;-74
2024/01/28 08:35:37;;;;;;;1.50;1.40;;;;;;;;;;5049434;28;20051;-75
2024/01/28 08:38:03;;;;;;;1.92;1.73;;;;;;;;;;5050554;28;20517;-75
2024/01/28 08:40:28;;;;;;;1.95;1.85;;;;;;;;;;5049935;28;20040;-75
2024/01/28 08:42:53;;;;;;;3.03;2.63;;;;;;;;;;5035123;28;20045;-74
2024/01/28 08:45:19;;;;;;;2.40;2.20;;;;;;;;;;5050550;28;20036;-75
2024/01/28 08:47:44;;;;;;;2.53;2.17;;;;;;;;;;5042496;28;20053;-75
2024/01/28 08:50:10;;;;;;;2.03;1.83;;;;;;;;;;5042419;28;20096;-75
2024/01/28 08:52:36;;;;;;;3.05;2.30;;;;;;;;;;5041827;28;20064;-75
2024/01/28 08:55:01;;;;;;;3.67;2.72;;;;;;;;;;5046356;28;20059;-75
2024/01/28 08:57:26;;;;;;;2.72;2.42;;;;;;;;;;5048278;28;20183;-75
2024/01/28 08:59:52;;;;;;;3.58;2.90;;;;;;;;;;5049643;28;20029;-75
2024/01/28 09:02:17;;;;;;;5.05;3.05;;;;;;;;;;5048045;28;20052;-75
2024/01/28 09:04:43;;;;;;;3.60;2.92;;;;;;;;;;5046776;28;20037;-76
2024/01/28 09:07:08;;;;;;;5.65;2.35;;;;;;;;;;5048765;28;20508;-75
2024/01/28 09:09:33;;;;;;;1.75;1.65;;;;;;;;;;5041096;28;20246;-75
2024/01/28 09:11:59;;;;;;;3.72;2.20;;;;;;;;;;5049844;28;20722;-75
2024/01/28 09:14:24;;;;;;;1.15;1.15;;;;;;;;;;5037345;28;20575;-75
2024/01/28 09:16:49;;;;;;;1.15;1.15;;;;;;;;;;5045114;28;20531;-75
2024/01/28 09:19:15;;;;;;;1.40;1.30;;;;;;;;;;5051107;28;20132;-75
2024/01/28 09:21:40;;;;;;;2.00;1.67;;;;;;;;;;5049271;28;20083;-76
2024/01/28 09:24:05;;;;;;;1.50;1.40;;;;;;;;;;5050478;28;20043;-76
2024/01/28 09:26:31;;;;;;;0.93;0.93;;;;;;;;;;5055918;28;20087;-76
2024/01/28 09:28:57;;;;;;;1.42;1.30;;;;;;;;;;5049937;28;20086;-76
2024/01/28 09:31:22;;;;;;;2.97;1.30;;;;;;;;;;5056827;28;20037;-75
2024/01/28 09:33:47;;;;;;;1.40;1.30;;;;;;;;;;5047144;28;20082;-76
2024/01/28 09:36:13;;;;;;;1.55;1.40;;;;;;;;;;5048613;28;20033;-75
2024/01/28 09:38:39;;;;;;;1.10;1.00;;;;;;;;;;5048646;28;20045;-76
2024/01/28 09:41:36;;;;;;;1.67;1.15;;;;;;;;;;5048029;28;20480;-77
2024/01/28 09:44:01;;;;;;;2.75;0.90;;;;;;;;;;5048933;28;20040;-75
2024/01/28 09:46:26;;;;;;;2.45;1.00;;;;;;;;;;5048704;28;20049;-75
2024/01/28 09:48:52;;;;;;;0.82;0.82;;;;;;;;;;5048959;28;20044;-75
2024/01/28 09:51:20;;;;;;;1.52;0.98;;;;;;;;;;5044033;28;20068;-75
2024/01/28 09:53:45;;;;;;;1.85;0.93;;;;;;;;;;5048509;28;20076;-75
2024/01/28 09:56:13;;;;;;;1.13;1.08;;;;;;;;;;5049228;28;20510;-77
2024/01/28 09:58:40;;;;;;;0.80;0.80;;;;;;;;;;5056381;28;22364;-75
2024/01/28 10:01:06;;;;;;;1.25;1.13;;;;;;;;;;5050933;28;20122;-75
2024/01/28 10:03:34;;;;;;;0.73;0.70;;;;;;;;;;5047385;28;20128;-75
2024/01/28 10:05:59;;;;;;;0.85;0.85;;;;;;;;;;5048336;28;20037;-75
2024/01/28 10:08:26;;;;;;;0.95;0.88;;;;;;;;;;5054272;28;20536;-75
2024/01/28 10:10:54;;;;;;;0.70;0.70;;;;;;;;;;5048813;28;20044;-75
2024/01/28 10:13:20;;;;;;;0.80;0.80;;;;;;;;;;5047851;28;20095;-75
2024/01/28 10:15:56;;;;;;;0.70;0.70;;;;;;;;;;5047805;28;20068;-75
2024/01/28 10:18:23;;;;;;;0.90;0.85;;;;;;;;;;5049852;28;20120;-75
2024/01/28 10:20:48;;;;;;;0.80;0.80;;;;;;;;;;5049175;28;20465;-75
2024/01/28 10:23:14;;;;;;;2.70;0.95;;;;;;;;;;5047938;28;20068;-77
2024/01/28 10:25:40;;;;;;;0.88;0.85;;;;;;;;;;5048337;28;20037;-74
2024/01/28 10:28:06;;;;;;;1.27;0.90;;;;;;;;;;5048126;28;20075;-75
2024/01/28 10:30:33;;;;;;;1.20;0.93;;;;;;;;;;5048873;28;20493;-75
2024/01/28 10:32:58;;;;;;;0.80;0.80;;;;;;;;;;5049374;28;20501;-75
2024/01/28 10:35:25;;;;;;;2.92;0.80;;;;;;;;;;5047017;28;20032;-75
2024/01/28 10:37:55;;;;;;;1.00;0.90;;;;;;;;;;5052015;28;20037;-76
2024/01/28 10:40:23;;;;;;;2.08;1.00;;;;;;;;;;5048209;28;20044;-74
2024/01/28 10:42:49;;;;;;;1.27;0.90;;;;;;;;;;5057829;28;20056;-74
2024/01/28 10:45:18;;;;;;;1.05;1.00;;;;;;;;;;5053728;28;20047;-74
2024/01/28 10:47:51;;;;;;;0.75;0.75;;;;;;;;;;5052220;28;20057;-74
2024/01/28 10:50:19;;;;;;;0.82;0.82;;;;;;;;;;5055730;28;20040;-74
2024/01/28 10:52:46;;;;;;;1.00;1.00;;;;;;;;;;5052281;28;20040;-73
2024/01/28 10:55:12;;;;;;;1.67;1.13;;;;;;;;;;5053277;28;20414;-74
2024/01/28 10:57:39;;;;;;;0.70;0.70;;;;;;;;;;5052015;28;20098;-74
2024/01/28 11:00:06;;;;;;;0.90;0.90;;;;;;;;;;5060256;28;20064;-74
2024/01/28 11:02:33;;;;;;;0.82;0.82;;;;;;;;;;5055988;28;20028;-74
2024/01/28 11:04:59;;;;;;;1.65;1.40;;;;;;;;;;5045555;28;20040;-74
2024/01/28 11:07:25;;;;;;;0.90;0.90;;;;;;;;;;5049643;28;20033;-74
2024/01/28 11:09:52;;;;;;;2.25;1.00;;;;;;;;;;5051051;28;20041;-74
2024/01/28 11:12:19;;;;;;;0.93;0.93;;;;;;;;;;5051941;28;20497;-74
2024/01/28 11:14:46;;;;;;;1.13;0.90;;;;;;;;;;5051947;28;20020;-73
2024/01/28 11:17:12;;;;;;;1.60;1.50;;;;;;;;;;5060712;28;20041;-74
2024/01/28 11:19:37;;;;;;;2.70;0.80;;;;;;;;;;5053722;28;20493;-74
2024/01/28 11:22:03;;;;;;;0.82;0.82;;;;;;;;;;5061020;28;20083;-74
2024/01/28 11:24:29;;;;;;;1.63;0.98;;;;;;;;;;5060467;28;20088;-74
2024/01/28 11:26:58;;;;;;;0.80;0.80;;;;;;;;;;5060579;28;20572;-74
2024/01/28 11:29:32;;;;;;;1.20;1.10;;;;;;;;;;5052962;28;20545;-74
2024/01/28 11:31:58;;;;;;;0.98;0.98;;;;;;;;;;5061058;28;20033;-74
2024/01/28 11:34:23;;;;;;;0.90;0.90;;;;;;;;;;5060110;28;20064;-74
2024/01/28 11:36:51;;;;;;;0.90;0.80;;;;;;;;;;5060975;28;20517;-74
2024/01/28 11:39:24;;;;;;;1.27;0.95;;;;;;;;;;5049285;28;20439;-74
2024/01/28 11:41:53;;;;;;;1.00;1.00;;;;;;;;;;5063823;28;20099;-74
2024/01/28 11:44:19;;;;;;;1.00;0.90;;;;;;;;;;5049397;28;20041;-74
2024/01/28 11:46:44;;;;;;;1.77;1.00;;;;;;;;;;5067340;28;20123;-74
2024/01/28 11:49:11;;;;;;;0.93;0.90;;;;;;;;;;5055762;28;20463;-74
2024/01/28 11:51:36;;;;;;;0.80;0.80;;;;;;;;;;5054376;28;20065;-74
2024/01/28 11:54:05;;;;;;;1.63;1.00;;;;;;;;;;5068709;28;20056;-74
2024/01/28 11:56:32;;;;;;;0.90;0.90;;;;;;;;;;5053199;28;20370;-74
2024/01/28 11:58:58;;;;;;;1.23;1.05;;;;;;;;;;5056614;28;20060;-74
2024/01/28 12:01:24;;;;;;;1.02;0.90;;;;;;;;;;5062963;28;20120;-74
2024/01/28 12:03:50;;;;;;;0.90;0.90;;;;;;;;;;5062207;28;20120;-74
2024/01/28 12:06:16;;;;;;;1.80;1.00;;;;;;;;;;5051046;28;20041;-74
2024/01/28 12:08:43;;;;;;;1.08;1.00;;;;;;;;;;5057813;28;20048;-74
2024/01/28 12:11:12;;;;;;;1.67;0.90;;;;;;;;;;5070007;28;20033;-74
2024/01/28 12:13:37;;;;;;;0.80;0.80;;;;;;;;;;5058187;28;20064;-74
2024/01/28 12:16:02;;;;;;;3.60;1.20;;;;;;;;;;5062183;28;20060;-74
2024/01/28 12:18:41;;;;;;;1.33;1.00;;;;;;;;;;5063728;28;20040;-74
2024/01/28 12:21:17;;;;;;;1.00;1.00;;;;;;;;;;5060238;28;20061;-74
2024/01/28 12:23:44;;;;;;;1.00;1.00;;;;;;;;;;5062014;28;20463;-74
2024/01/28 12:26:10;;;;;;;1.70;1.27;;;;;;;;;;5050666;28;20044;-75
2024/01/28 12:28:35;;;;;;;0.88;0.88;;;;;;;;;;5051426;28;20037;-74
2024/01/28 12:31:00;;;;;;;0.90;0.90;;;;;;;;;;5067761;28;20044;-74
2024/01/28 12:33:27;;;;;;;1.02;0.93;;;;;;;;;;5064263;28;20052;-74
2024/01/28 12:35:53;;;;;;;1.20;1.10;;;;;;;;;;5056552;28;20033;-74
2024/01/28 12:38:18;;;;;;;1.83;1.73;;;;;;;;;;5052607;28;20516;-74
2024/01/28 12:40:43;;;;;;;1.40;1.30;;;;;;;;;;5051776;28;20067;-74
2024/01/28 12:43:09;;;;;;;1.08;1.08;;;;;;;;;;5054422;28;20593;-74
2024/01/28 12:45:34;;;;;;;1.40;1.30;;;;;;;;;;5050933;28;20037;-74
2024/01/28 12:47:59;;;;;;;1.75;1.55;;;;;;;;;;5054773;28;20041;-74
2024/01/28 12:50:25;;;;;;;2.05;1.70;;;;;;;;;;5060527;28;20044;-74
2024/01/28 12:52:50;;;;;;;3.60;1.55;;;;;;;;;;5053465;28;20029;-74
2024/01/28 12:55:15;;;;;;;2.15;1.65;;;;;;;;;;5051990;28;20132;-74
2024/01/28 12:57:42;;;;;;;1.88;1.63;;;;;;;;;;5048821;28;20040;-74
2024/01/28 13:00:08;;;;;;;3.53;1.60;;;;;;;;;;5059087;28;20025;-74
2024/01/28 13:02:34;;;;;;;2.22;1.80;;;;;;;;;;5057332;28;20075;-74
2024/01/28 13:04:59;;;;;;;1.48;1.38;;;;;;;;;;5055506;28;20437;-74
2024/01/28 13:07:24;;;;;;;2.85;1.55;;;;;;;;;;5059932;28;20032;-74
2024/01/28 13:09:50;;;;;;;2.20;1.60;;;;;;;;;;5055463;28;20060;-74
2024/01/28 13:12:16;;;;;;;2.00;1.63;;;;;;;;;;5051708;28;20044;-75
2024/01/28 13:14:42;;;;;;;2.17;1.50;;;;;;;;;;5059864;28;20036;-74
2024/01/28 13:17:07;;;;;;;1.45;1.23;;;;;;;;;;5062371;28;20032;-74
2024/01/28 13:19:32;;;;;;;1.17;1.15;;;;;;;;;;5059811;28;20090;-74
2024/01/28 13:21:57;;;;;;;1.98;1.33;;;;;;;;;;5067297;28;20056;-74
2024/01/28 13:24:23;;;;;;;1.50;1.27;;;;;;;;;;5069005;28;20036;-75
2024/01/28 13:26:50;;;;;;;1.25;1.15;;;;;;;;;;5059963;28;20122;-73
2024/01/28 13:29:16;;;;;;;1.77;1.20;;;;;;;;;;5054362;28;20079;-73
2024/01/28 13:31:41;;;;;;;1.40;1.30;;;;;;;;;;5064738;28;20041;-73
2024/01/28 13:34:07;;;;;;;1.15;1.05;;;;;;;;;;5052878;28;20078;-73
2024/01/28 13:36:32;;;;;;;1.80;1.33;;;;;;;;;;5050489;28;20044;-74
2024/01/28 13:38:57;;;;;;;2.17;1.30;;;;;;;;;;5067528;28;20564;-74
2024/01/28 13:41:23;;;;;;;1.30;1.20;;;;;;;;;;5056499;28;20125;-73
2024/01/28 13:43:48;;;;;;;1.42;1.02;;;;;;;;;;5058889;28;20033;-73
2024/01/28 13:46:13;;;;;;;0.85;0.85;;;;;;;;;;5065794;28;20048;-74
2024/01/28 13:48:39;;;;;;;1.10;1.00;;;;;;;;;;5055578;28;20075;-74
2024/01/28 13:51:04;;;;;;;1.00;1.00;;;;;;;;;;5061136;28;20155;-74
2024/01/28 13:53:30;;;;;;;0.90;0.90;;;;;;;;;;5050081;28;20033;-73
2024/01/28 13:55:55;;;;;;;4.38;0.95;;;;;;;;;;5056480;28;20041;-74
2024/01/28 13:58:20;;;;;;;0.95;0.95;;;;;;;;;;5049756;28;20049;-74
2024/01/28 14:00:46;;;;;;;0.80;0.80;;;;;;;;;;5057908;28;20058;-74
2024/01/28 14:03:11;;;;;;;1.48;0.85;;;;;;;;;;5051797;28;20032;-74
2024/01/28 14:05:37;;;;;;;0.90;0.90;;;;;;;;;;5049725;28;20029;-74
2024/01/28 14:08:03;;;;;;;1.13;0.90;;;;;;;;;;5061280;28;20095;-73
2024/01/28 14:10:28;;;;;;;0.80;0.80;;;;;;;;;;5049128;28;20041;-74
2024/01/28 14:12:53;;;;;;;0.90;0.90;;;;;;;;;;5053906;28;20045;-74
2024/01/28 14:15:18;;;;;;;1.55;0.80;;;;;;;;;;5061868;28;20124;-74
2024/01/28 14:17:44;;;;;;;1.45;0.80;;;;;;;;;;5056227;28;20033;-74
2024/01/28 14:20:10;;;;;;;0.90;0.90;;;;;;;;;;5062030;28;20113;-73
2024/01/28 14:22:35;;;;;;;0.70;0.70;;;;;;;;;;5053536;28;20067;-74
2024/01/28 14:25:00;;;;;;;0.77;0.77;;;;;;;;;;5052656;28;20404;-73
2024/01/28 14:27:25;;;;;;;0.80;0.80;;;;;;;;;;5055447;28;20051;-74
2024/01/28 14:29:51;;;;;;;0.90;0.90;;;;;;;;;;5062535;28;20146;-74
2024/01/28 14:32:17;;;;;;;3.05;0.98;;;;;;;;;;5054146;28;20036;-74
2024/01/28 14:34:42;;;;;;;1.10;0.73;;;;;;;;;;5056113;28;20067;-74